Terminal Aerodrome Forecast
Issued by NWS

Home | Current Version | Previous Version | Text Only | Print | Product List | Glossary On
Versions: 1 2 3 4 5 6 7 8 9 10 11 12
000
FTUS43 KGLD 242351
TAFMCK
TAF
KMCK 242351Z 2500/2524 17010KT P6SM SKC
     FM250600 15010KT P6SM FEW200 WS004/18040KT
     FM251200 13007KT P6SM FEW200
     FM252200 04010KT P6SM FEW200 PROB30 2522/2524 -TSRA BKN090CB=

USA.gov is the U.S. government's official web portal to all federal, state and local government web resources and services.